Time;durP1;ratioP1;P1;durP2;ratioP2;P2;SDS_P1;SDS_P2;PMS_P1;PMS_P2;Temp;Humidity;BMP_temperature;BMP_pressure;BME280_temperature;BME280_humidity;BME280_pressure;Samples;Min_cycle;Max_cycle;Signal;HPM_P1;HPM_P2
2022/01/15 00:00:30;;;;;;;30.97;8.17;;;3.50;99.90;;;;;;6212325;23;20202;-48
2022/01/15 00:02:56;;;;;;;30.80;7.30;;;3.50;99.90;;;;;;6212773;23;20392;-48
2022/01/15 00:05:22;;;;;;;38.93;7.17;;;3.50;99.90;;;;;;6212353;23;20389;-48
2022/01/15 00:07:48;;;;;;;34.03;7.30;;;3.50;99.90;;;;;;6212800;23;20524;-48
2022/01/15 00:10:16;;;;;;;41.20;8.40;;;3.50;99.90;;;;;;6212851;23;20889;-48
2022/01/15 00:12:42;;;;;;;28.17;7.40;;;3.40;99.90;;;;;;6212610;23;20369;-48
2022/01/15 00:15:14;;;;;;;29.27;6.20;;;3.50;99.90;;;;;;6212040;23;20385;-47
2022/01/15 00:17:58;;;;;;;24.07;6.27;;;3.40;99.90;;;;;;6212803;23;20671;-48
2022/01/15 00:20:25;;;;;;;44.50;7.97;;;3.40;99.90;;;;;;6208790;23;20373;-47
2022/01/15 00:22:52;;;;;;;26.93;5.80;;;3.30;99.90;;;;;;6212659;23;20385;-48
2022/01/15 00:25:20;;;;;;;34.63;6.20;;;3.30;99.90;;;;;;6212376;23;20372;-48
2022/01/15 00:27:45;;;;;;;43.70;7.10;;;3.30;99.90;;;;;;6212421;23;20962;-47
2022/01/15 00:30:13;;;;;;;31.20;6.10;;;3.30;99.90;;;;;;6212629;23;20397;-48
2022/01/15 00:32:39;;;;;;;28.87;5.97;;;3.30;99.90;;;;;;6212153;23;20158;-48
2022/01/15 00:35:07;;;;;;;32.00;5.57;;;3.30;99.90;;;;;;6211800;23;20456;-48
2022/01/15 00:37:33;;;;;;;34.10;6.37;;;3.30;99.90;;;;;;6184794;23;20412;-48
2022/01/15 00:39:59;;;;;;;33.43;6.23;;;3.30;99.90;;;;;;6212307;23;20452;-48
2022/01/15 00:42:25;;;;;;;27.20;5.77;;;3.30;99.90;;;;;;6211993;23;20154;-47
2022/01/15 00:44:51;;;;;;;26.10;5.53;;;3.30;99.90;;;;;;6185285;23;20429;-48
2022/01/15 00:47:17;;;;;;;32.70;5.50;;;3.20;99.90;;;;;;6207701;23;20504;-48
2022/01/15 00:49:43;;;;;;;33.63;6.00;;;3.30;99.90;;;;;;6209969;23;20214;-48
2022/01/15 00:52:08;;;;;;;26.07;5.70;;;3.20;99.90;;;;;;6211157;23;20155;-48
2022/01/15 00:54:34;;;;;;;22.60;5.67;;;3.20;99.90;;;;;;6211326;23;20573;-48
2022/01/15 00:56:59;;;;;;;29.07;5.27;;;3.20;99.90;;;;;;6210422;23;20476;-48
2022/01/15 00:59:25;;;;;;;25.60;5.60;;;3.20;99.90;;;;;;6210134;23;20248;-48
2022/01/15 01:01:50;;;;;;;27.93;4.93;;;3.20;99.90;;;;;;6210398;23;20149;-48
2022/01/15 01:04:16;;;;;;;25.53;5.77;;;3.20;99.90;;;;;;6213561;23;20624;-48
2022/01/15 01:06:41;;;;;;;37.53;5.70;;;3.20;99.90;;;;;;6213979;23;20158;-48
2022/01/15 01:09:07;;;;;;;21.10;5.30;;;3.20;99.90;;;;;;6214194;23;20185;-47
2022/01/15 01:11:45;;;;;;;27.63;5.23;;;3.20;99.90;;;;;;6214652;23;20173;-48
2022/01/15 01:22:52;;;;;;;30.63;5.70;;;3.20;99.90;;;;;;6214434;23;20691;-48
2022/01/15 01:25:05;;;;;;;22.13;4.83;;;3.20;99.90;;;;;;6213970;23;20467;-48
2022/01/15 01:27:43;;;;;;;19.60;4.50;;;3.20;99.90;;;;;;6214157;23;20421;-48
2022/01/15 01:30:34;;;;;;;30.97;5.10;;;3.20;99.90;;;;;;6213810;23;20440;-47
2022/01/15 01:33:35;;;;;;;42.00;6.30;;;3.20;99.90;;;;;;6210468;23;20386;-47
2022/01/15 01:36:07;;;;;;;29.53;5.37;;;3.20;99.90;;;;;;6208337;23;20898;-47
2022/01/15 01:38:49;;;;;;;39.73;5.20;;;3.20;99.90;;;;;;6213901;23;20365;-48
2022/01/15 01:41:18;;;;;;;28.13;5.30;;;3.30;99.90;;;;;;6214074;23;20376;-48
2022/01/15 01:43:51;;;;;;;37.33;5.33;;;3.30;99.90;;;;;;6214172;23;20369;-47
2022/01/15 01:46:35;;;;;;;23.27;5.30;;;3.30;99.90;;;;;;6214052;23;20377;-48
2022/01/15 01:49:03;;;;;;;41.83;5.93;;;3.30;99.90;;;;;;6212158;23;20429;-47
2022/01/15 01:51:37;;;;;;;26.37;4.83;;;3.30;99.90;;;;;;6212307;23;20812;-48
2022/01/15 01:54:05;;;;;;;27.20;5.30;;;3.40;99.90;;;;;;6213510;23;20366;-47
2022/01/15 01:56:32;;;;;;;24.53;5.77;;;3.40;99.90;;;;;;6214090;23;20366;-49
2022/01/15 01:58:58;;;;;;;26.77;4.70;;;3.40;99.90;;;;;;6213934;23;20754;-48
2022/01/15 02:01:24;;;;;;;35.87;5.23;;;3.50;99.90;;;;;;6214322;23;20381;-48
2022/01/15 02:03:50;;;;;;;25.80;6.13;;;3.50;99.90;;;;;;6213927;23;20700;-48
2022/01/15 02:06:17;;;;;;;32.77;7.07;;;3.50;99.90;;;;;;6209910;23;20407;-48
2022/01/15 02:08:43;;;;;;;34.33;5.10;;;3.60;99.90;;;;;;6213109;23;20193;-48
2022/01/15 02:11:09;;;;;;;34.83;5.20;;;3.60;99.90;;;;;;6214157;23;20368;-48
2022/01/15 02:13:39;;;;;;;21.33;4.60;;;3.60;99.90;;;;;;6213851;23;20816;-48
2022/01/15 02:16:04;;;;;;;26.60;4.60;;;3.60;99.90;;;;;;6213210;23;20201;-48
2022/01/15 02:18:30;;;;;;;29.40;4.63;;;3.70;99.90;;;;;;6213751;23;20820;-48
2022/01/15 02:23:33;;;;;;;27.20;5.30;;;3.70;99.90;;;;;;6213437;23;20142;-48
2022/01/15 02:23:49;;;;;;;25.50;4.97;;;3.70;99.90;;;;;;6212498;23;20675;-48
2022/01/15 02:26:26;;;;;;;22.67;3.83;;;3.70;99.90;;;;;;6210673;23;20373;-48
2022/01/15 02:28:55;;;;;;;24.10;5.30;;;3.70;99.90;;;;;;6213864;23;20528;-48
2022/01/15 02:31:22;;;;;;;26.20;5.00;;;3.70;99.90;;;;;;6213988;23;20412;-48
2022/01/15 02:33:49;;;;;;;19.30;4.13;;;3.70;99.90;;;;;;6213682;23;20368;-48
2022/01/15 02:36:35;;;;;;;19.27;4.70;;;3.70;99.90;;;;;;6214059;23;20366;-48
2022/01/15 02:39:02;;;;;;;33.63;5.53;;;3.70;99.90;;;;;;6213283;23;20366;-48
2022/01/15 02:41:36;;;;;;;30.57;4.40;;;3.70;99.90;;;;;;6213365;23;20377;-48
2022/01/15 02:44:04;;;;;;;29.43;6.53;;;3.80;99.90;;;;;;6213548;23;20689;-48
2022/01/15 02:48:58;;;;;;;27.33;4.77;;;3.70;99.90;;;;;;6223774;23;20463;-48
2022/01/15 02:51:27;;;;;;;31.63;5.43;;;3.80;99.90;;;;;;6213190;23;20396;-48
2022/01/15 02:53:56;;;;;;;21.83;5.60;;;3.70;99.90;;;;;;6213434;23;20370;-48
2022/01/15 02:56:42;;;;;;;33.07;5.33;;;3.80;99.90;;;;;;6213581;23;20888;-47
2022/01/15 02:59:21;;;;;;;28.03;5.00;;;3.80;99.90;;;;;;6212869;23;20807;-47
2022/01/15 03:01:49;;;;;;;35.27;4.90;;;3.70;99.90;;;;;;6213146;23;20734;-48
2022/01/15 03:04:15;;;;;;;24.73;6.00;;;3.70;99.90;;;;;;6213942;23;20889;-48
2022/01/15 03:06:40;;;;;;;31.73;5.87;;;3.80;99.90;;;;;;6212952;23;20882;-48
2022/01/15 03:09:06;;;;;;;36.17;5.83;;;3.80;99.90;;;;;;6213361;23;20382;-48
2022/01/15 03:11:31;;;;;;;18.77;4.20;;;3.80;99.90;;;;;;6213158;23;20504;-48
2022/01/15 03:13:57;;;;;;;19.60;4.70;;;3.80;99.90;;;;;;6186354;23;20162;-48
2022/01/15 03:16:23;;;;;;;22.40;5.50;;;3.80;99.90;;;;;;6212990;23;20138;-48
2022/01/15 03:18:49;;;;;;;47.07;5.60;;;3.80;99.90;;;;;;6213358;23;20173;-48
2022/01/15 03:21:15;;;;;;;31.17;5.87;;;3.80;99.90;;;;;;6212829;23;20166;-48
2022/01/15 03:23:40;;;;;;;26.57;4.80;;;3.80;99.90;;;;;;6213135;23;20371;-48
2022/01/15 03:26:08;;;;;;;26.23;5.37;;;3.90;99.90;;;;;;6208514;23;20161;-47
2022/01/15 03:28:34;;;;;;;29.33;6.20;;;3.90;99.90;;;;;;6213196;23;20236;-48
2022/01/15 03:31:00;;;;;;;37.13;5.63;;;3.90;99.90;;;;;;6212821;23;20398;-48
2022/01/15 03:33:25;;;;;;;35.93;6.00;;;3.90;99.90;;;;;;6212914;23;20672;-48
2022/01/15 03:35:51;;;;;;;25.93;4.70;;;3.90;99.90;;;;;;6212683;23;20216;-48
2022/01/15 03:38:17;;;;;;;21.10;5.30;;;3.90;99.90;;;;;;6212946;23;20504;-48
2022/01/15 03:40:42;;;;;;;26.83;5.17;;;3.90;99.90;;;;;;6208558;23;20163;-48
2022/01/15 03:43:08;;;;;;;19.47;4.33;;;3.80;99.90;;;;;;6212879;23;20139;-48
2022/01/15 03:45:34;;;;;;;25.27;5.23;;;3.80;99.90;;;;;;6213053;23;20162;-48
2022/01/15 03:48:00;;;;;;;24.93;5.53;;;3.80;99.90;;;;;;6213341;23;20166;-48
2022/01/15 03:50:26;;;;;;;23.27;5.07;;;3.80;99.90;;;;;;6212833;23;20358;-48
2022/01/15 03:52:53;;;;;;;29.20;4.93;;;3.80;99.90;;;;;;6186020;23;20392;-48
2022/01/15 03:55:20;;;;;;;29.33;4.87;;;3.80;99.90;;;;;;6212800;23;20727;-48
2022/01/15 03:57:45;;;;;;;23.70;5.27;;;3.80;99.90;;;;;;6212495;23;20448;-48
2022/01/15 04:00:20;;;;;;;29.87;5.90;;;3.80;99.90;;;;;;6202318;23;20445;-48
2022/01/15 04:02:47;;;;;;;30.67;5.13;;;3.80;99.90;;;;;;6212371;23;20393;-48
2022/01/15 04:05:14;;;;;;;25.13;5.60;;;3.80;99.90;;;;;;6212568;23;20731;-48
2022/01/15 04:07:39;;;;;;;33.90;5.93;;;3.80;99.90;;;;;;6212467;23;20903;-47
2022/01/15 04:10:08;;;;;;;30.90;5.60;;;3.80;99.90;;;;;;6213116;23;20374;-48
2022/01/15 04:12:33;;;;;;;28.63;5.43;;;3.80;99.90;;;;;;6212907;23;20143;-48
2022/01/15 04:14:59;;;;;;;32.20;5.63;;;3.80;99.90;;;;;;6212502;23;20484;-48
2022/01/15 04:17:25;;;;;;;27.63;5.70;;;3.80;99.90;;;;;;6212803;23;20197;-48
2022/01/15 04:19:51;;;;;;;29.77;5.37;;;3.80;99.90;;;;;;6213102;23;20256;-48
2022/01/15 04:22:17;;;;;;;27.73;4.67;;;3.80;99.90;;;;;;6212473;23;20377;-48
2022/01/15 04:24:42;;;;;;;24.83;5.83;;;3.90;99.90;;;;;;6212330;23;20385;-48
2022/01/15 04:27:08;;;;;;;30.30;5.93;;;3.90;99.90;;;;;;6212284;23;20174;-48
2022/01/15 04:29:34;;;;;;;27.13;6.97;;;3.90;99.90;;;;;;6210688;23;20162;-48
2022/01/15 04:32:00;;;;;;;23.97;5.47;;;3.90;99.90;;;;;;6212695;23;20153;-48
2022/01/15 04:34:27;;;;;;;27.80;6.40;;;3.90;99.90;;;;;;6212366;23;20258;-47
2022/01/15 04:37:01;;;;;;;33.43;6.97;;;3.90;99.90;;;;;;6212300;23;20832;-48
2022/01/15 04:39:27;;;;;;;19.00;5.73;;;3.90;99.90;;;;;;6213012;23;20362;-48
2022/01/15 04:41:52;;;;;;;27.93;6.33;;;3.80;99.90;;;;;;6212179;23;20392;-48
2022/01/15 04:44:18;;;;;;;23.53;8.37;;;3.80;99.90;;;;;;6212212;23;20191;-48
2022/01/15 04:46:43;;;;;;;23.70;6.10;;;3.70;99.90;;;;;;6212153;23;20138;-48
2022/01/15 04:49:09;;;;;;;31.60;6.20;;;3.70;99.90;;;;;;6212370;23;20162;-48
2022/01/15 04:51:35;;;;;;;17.63;5.50;;;3.70;99.90;;;;;;6212169;23;20200;-48
2022/01/15 04:54:01;;;;;;;27.73;5.57;;;3.70;99.90;;;;;;6212442;23;20573;-48
2022/01/15 04:56:26;;;;;;;14.90;6.10;;;3.70;99.90;;;;;;6212202;23;20385;-48
2022/01/15 04:58:52;;;;;;;23.23;5.77;;;3.60;99.90;;;;;;6212484;23;20260;-48
2022/01/15 05:01:18;;;;;;;20.53;5.20;;;3.60;99.90;;;;;;6212362;23;20573;-48
2022/01/15 05:03:43;;;;;;;22.13;6.40;;;3.60;99.90;;;;;;6212090;23;20158;-48
2022/01/15 05:06:09;;;;;;;20.30;5.80;;;3.60;99.90;;;;;;6212145;23;20240;-48
2022/01/15 05:08:34;;;;;;;23.97;6.53;;;3.60;99.90;;;;;;6212076;23;20193;-48
2022/01/15 05:11:10;;;;;;;20.30;5.87;;;3.60;99.90;;;;;;6212394;23;20166;-48
2022/01/15 05:13:37;;;;;;;21.77;6.40;;;3.50;99.90;;;;;;6212189;23;20134;-48
2022/01/15 05:16:03;;;;;;;22.00;6.90;;;3.60;99.90;;;;;;6208666;23;20424;-48
2022/01/15 05:18:29;;;;;;;23.10;6.23;;;3.60;99.90;;;;;;6212354;23;20385;-48
2022/01/15 05:20:55;;;;;;;25.23;5.87;;;3.60;99.90;;;;;;6212063;23;20386;-48
2022/01/15 05:23:20;;;;;;;27.53;7.20;;;3.60;99.90;;;;;;6212178;23;20166;-48
2022/01/15 05:25:46;;;;;;;22.57;6.40;;;3.60;99.90;;;;;;6212052;23;20369;-47
2022/01/15 05:28:11;;;;;;;23.30;6.50;;;3.60;99.90;;;;;;6211961;23;20194;-48
2022/01/15 05:30:37;;;;;;;23.37;7.00;;;3.60;99.90;;;;;;6212146;23;20147;-48
2022/01/15 05:33:03;;;;;;;18.63;8.03;;;3.70;99.90;;;;;;6211912;23;20145;-48
2022/01/15 05:35:29;;;;;;;22.20;6.60;;;3.80;99.90;;;;;;6212315;23;20384;-48
2022/01/15 05:37:57;;;;;;;17.13;5.70;;;3.70;99.90;;;;;;6212343;23;20740;-48
2022/01/15 05:40:23;;;;;;;16.53;6.60;;;3.70;99.90;;;;;;6212462;23;20471;-50
2022/01/15 05:42:49;;;;;;;19.83;6.40;;;3.70;99.90;;;;;;6212261;23;20648;-51
2022/01/15 05:45:16;;;;;;;20.53;7.73;;;3.50;99.90;;;;;;6212070;23;20450;-55
2022/01/15 05:47:41;;;;;;;18.40;6.77;;;3.50;99.90;;;;;;6212116;23;20467;-50
2022/01/15 05:50:07;;;;;;;20.80;6.80;;;3.40;99.90;;;;;;6212774;23;20476;-50
2022/01/15 05:52:33;;;;;;;19.97;6.60;;;3.40;99.90;;;;;;6214114;23;20139;-51
2022/01/15 05:54:59;;;;;;;23.80;6.10;;;3.40;99.90;;;;;;6213963;23;20476;-51
2022/01/15 05:57:24;;;;;;;17.47;6.23;;;3.40;99.90;;;;;;6214060;23;20515;-51
2022/01/15 05:59:51;;;;;;;17.33;5.93;;;3.30;99.90;;;;;;6213504;23;20194;-51
2022/01/15 06:02:18;;;;;;;15.23;5.90;;;3.30;99.90;;;;;;6213880;23;20146;-51
2022/01/15 06:04:43;;;;;;;21.60;7.30;;;3.30;99.90;;;;;;6213764;23;20461;-51
2022/01/15 06:07:09;;;;;;;19.10;6.63;;;3.40;99.90;;;;;;6213554;23;20483;-50
2022/01/15 06:09:35;;;;;;;21.33;7.10;;;3.30;99.90;;;;;;6213843;23;20143;-51
2022/01/15 06:12:01;;;;;;;21.60;8.20;;;3.30;99.90;;;;;;6213583;23;20720;-51
2022/01/15 06:14:27;;;;;;;19.60;7.10;;;3.20;99.90;;;;;;6213328;23;20142;-50
2022/01/15 06:16:52;;;;;;;15.43;7.43;;;3.20;99.90;;;;;;6213728;23;20366;-49
2022/01/15 06:19:18;;;;;;;15.30;7.23;;;3.20;99.90;;;;;;6213445;23;20389;-51
2022/01/15 06:21:43;;;;;;;23.07;6.70;;;3.20;99.90;;;;;;6213778;23;20149;-50
2022/01/15 06:24:09;;;;;;;16.60;6.70;;;3.20;99.90;;;;;;6213687;23;20476;-50
2022/01/15 06:26:35;;;;;;;24.70;7.10;;;3.10;99.90;;;;;;6214123;23;20216;-50
2022/01/15 06:29:00;;;;;;;20.40;8.80;;;3.10;99.90;;;;;;6213549;23;20178;-51
2022/01/15 06:31:28;;;;;;;22.30;8.23;;;3.10;99.90;;;;;;6213475;23;20481;-50
2022/01/15 06:33:53;;;;;;;27.60;8.20;;;3.10;99.90;;;;;;6213919;23;20142;-51
2022/01/15 06:36:19;;;;;;;34.93;8.60;;;3.00;99.90;;;;;;6213495;23;20378;-51
2022/01/15 06:38:44;;;;;;;19.17;7.80;;;3.00;99.90;;;;;;6213292;23;20143;-50
2022/01/15 06:41:10;;;;;;;19.53;7.10;;;3.10;99.90;;;;;;6213672;23;20201;-51
2022/01/15 06:43:35;;;;;;;18.30;7.60;;;3.20;99.90;;;;;;6213200;23;20533;-50
2022/01/15 06:46:01;;;;;;;17.43;7.73;;;3.20;99.90;;;;;;6213460;23;20509;-50
2022/01/15 06:48:28;;;;;;;23.53;8.13;;;3.20;99.90;;;;;;6213406;23;20198;-51
2022/01/15 06:50:54;;;;;;;23.83;8.80;;;3.20;99.90;;;;;;6213290;23;20166;-50
2022/01/15 06:53:20;;;;;;;16.67;7.77;;;3.10;99.90;;;;;;6213371;23;20456;-50
2022/01/15 06:55:49;;;;;;;19.83;7.40;;;3.00;99.90;;;;;;6213662;23;20370;-47
2022/01/15 06:58:15;;;;;;;24.40;7.97;;;3.00;99.90;;;;;;6213192;23;20217;-47
2022/01/15 07:00:42;;;;;;;21.40;8.50;;;3.00;99.90;;;;;;6212868;23;20772;-47
2022/01/15 07:03:07;;;;;;;21.73;8.87;;;3.00;99.90;;;;;;6209035;23;20795;-47
2022/01/15 07:05:33;;;;;;;18.10;8.40;;;3.00;99.90;;;;;;6213481;23;20370;-48
2022/01/15 07:07:58;;;;;;;23.73;9.40;;;2.90;99.90;;;;;;6213002;23;20193;-47
2022/01/15 07:10:24;;;;;;;17.80;8.43;;;2.90;99.90;;;;;;6213036;23;20170;-48
2022/01/15 07:12:50;;;;;;;29.13;9.23;;;2.90;99.90;;;;;;6212974;23;20150;-47
2022/01/15 07:15:16;;;;;;;30.47;10.97;;;2.90;99.90;;;;;;6213089;23;20424;-51
2022/01/15 07:17:46;;;;;;;18.00;9.30;;;2.90;99.90;;;;;;6212985;23;20374;-50
2022/01/15 07:20:12;;;;;;;23.43;9.37;;;2.90;99.90;;;;;;6213068;23;20147;-52
2022/01/15 07:22:39;;;;;;;23.33;9.87;;;2.80;99.90;;;;;;6213192;23;20888;-51
2022/01/15 07:25:05;;;;;;;21.50;8.27;;;2.80;99.90;;;;;;6213059;23;20735;-51
2022/01/15 07:27:31;;;;;;;22.57;9.93;;;2.70;99.90;;;;;;6213027;23;20423;-51
2022/01/15 07:29:57;;;;;;;24.27;9.67;;;2.70;99.90;;;;;;6212857;23;20836;-49
2022/01/15 07:32:22;;;;;;;22.63;9.90;;;2.70;99.90;;;;;;6213331;23;20193;-50
2022/01/15 07:34:48;;;;;;;23.27;9.83;;;2.70;99.90;;;;;;6213024;23;20235;-51
2022/01/15 07:37:14;;;;;;;28.00;11.23;;;2.70;99.90;;;;;;6213027;23;20157;-51
2022/01/15 07:39:41;;;;;;;26.07;11.33;;;2.70;99.90;;;;;;6212805;23;20162;-51
2022/01/15 07:42:08;;;;;;;26.67;10.50;;;2.80;99.90;;;;;;6212680;23;20734;-50
2022/01/15 07:44:33;;;;;;;26.20;9.67;;;2.70;99.90;;;;;;6212895;23;20384;-50
2022/01/15 07:46:59;;;;;;;32.63;10.70;;;2.80;99.90;;;;;;6186006;23;20418;-51
2022/01/15 07:49:24;;;;;;;22.50;9.20;;;2.80;99.90;;;;;;6212814;23;20143;-51
2022/01/15 07:51:50;;;;;;;18.00;8.00;;;2.80;99.90;;;;;;6212807;23;20485;-51
2022/01/15 07:54:15;;;;;;;17.00;8.90;;;2.70;99.90;;;;;;6212832;23;20147;-51
2022/01/15 07:56:41;;;;;;;19.13;10.03;;;2.70;99.90;;;;;;6212462;23;20159;-51
2022/01/15 07:59:06;;;;;;;22.10;9.30;;;2.70;99.90;;;;;;6212748;23;20457;-51
2022/01/15 08:01:32;;;;;;;17.57;7.00;;;2.70;99.90;;;;;;6212829;23;20213;-48
2022/01/15 08:03:57;;;;;;;16.20;7.40;;;2.70;99.90;;;;;;6212676;23;20209;-50
2022/01/15 08:06:23;;;;;;;23.50;8.40;;;2.70;99.90;;;;;;6212668;23;20143;-51
2022/01/15 08:08:48;;;;;;;15.33;7.47;;;2.70;99.90;;;;;;6212479;23;20228;-50
2022/01/15 08:11:14;;;;;;;16.83;6.67;;;2.70;99.90;;;;;;6212466;23;20583;-50
2022/01/15 08:13:39;;;;;;;15.47;7.07;;;2.80;99.90;;;;;;6212585;23;20208;-52
2022/01/15 08:16:05;;;;;;;16.50;7.53;;;2.80;99.90;;;;;;6212567;23;20237;-51
2022/01/15 08:18:32;;;;;;;24.53;7.87;;;2.90;99.90;;;;;;6212622;23;20221;-51
2022/01/15 08:20:57;;;;;;;16.80;7.80;;;2.90;99.90;;;;;;6212368;23;20201;-50
2022/01/15 08:23:23;;;;;;;21.30;8.17;;;2.90;99.90;;;;;;6212741;23;20397;-50
2022/01/15 08:25:49;;;;;;;17.47;7.70;;;3.00;99.90;;;;;;6212540;23;20593;-51
2022/01/15 08:28:16;;;;;;;15.50;7.80;;;3.00;99.90;;;;;;6212466;23;20453;-51
2022/01/15 08:30:42;;;;;;;15.10;6.60;;;3.00;99.90;;;;;;6212429;23;20135;-51
2022/01/15 08:33:07;;;;;;;18.93;7.57;;;3.00;99.90;;;;;;6185477;23;20690;-52
2022/01/15 08:35:33;;;;;;;16.70;7.70;;;3.00;99.90;;;;;;6212683;23;20151;-49
2022/01/15 08:38:02;;;;;;;20.20;7.50;;;3.00;99.90;;;;;;6212825;23;20604;-51
2022/01/15 08:40:28;;;;;;;16.93;7.53;;;3.10;99.90;;;;;;6212306;23;20162;-53
2022/01/15 08:42:53;;;;;;;22.93;7.60;;;3.10;99.90;;;;;;6212253;23;20385;-56
2022/01/15 08:45:19;;;;;;;13.70;7.33;;;3.20;99.90;;;;;;6212484;23;20381;-57
2022/01/15 08:47:45;;;;;;;15.90;6.27;;;3.20;99.90;;;;;;6212395;23;20194;-56
2022/01/15 08:50:13;;;;;;;15.43;6.80;;;3.30;99.90;;;;;;6212292;23;20875;-56
2022/01/15 08:52:39;;;;;;;17.20;7.63;;;3.40;99.90;;;;;;6209617;23;20527;-56
2022/01/15 08:55:06;;;;;;;16.60;6.27;;;3.40;99.90;;;;;;6212216;23;20377;-56
2022/01/15 08:57:33;;;;;;;18.83;6.47;;;3.50;99.90;;;;;;6212237;23;20366;-55
2022/01/15 08:59:59;;;;;;;17.93;6.17;;;3.50;99.90;;;;;;6211964;23;20437;-49
2022/01/15 09:02:24;;;;;;;16.90;5.77;;;3.50;99.90;;;;;;6212410;23;20806;-56
2022/01/15 09:04:50;;;;;;;16.80;5.87;;;3.50;99.90;;;;;;6212193;23;20385;-56
2022/01/15 09:07:16;;;;;;;11.37;5.63;;;3.60;99.90;;;;;;6212220;23;20197;-56
2022/01/15 09:09:42;;;;;;;23.17;6.37;;;3.70;99.90;;;;;;6212244;23;20370;-56
2022/01/15 09:12:07;;;;;;;14.50;6.00;;;3.80;99.90;;;;;;6212458;23;20166;-58
2022/01/15 09:14:33;;;;;;;14.43;6.20;;;3.80;99.90;;;;;;6212597;23;20843;-56
2022/01/15 09:16:59;;;;;;;17.77;6.10;;;3.80;99.90;;;;;;6212564;23;20411;-56
2022/01/15 09:19:24;;;;;;;15.00;6.80;;;3.80;99.90;;;;;;6212567;23;20147;-56
2022/01/15 09:21:50;;;;;;;11.27;5.57;;;3.80;99.90;;;;;;6212160;23;20233;-48
2022/01/15 09:24:16;;;;;;;13.47;5.10;;;3.90;99.90;;;;;;6207407;23;20139;-49
2022/01/15 09:27:00;;;;;;;11.77;5.40;;;4.00;99.90;;;;;;6214074;23;20154;-48
2022/01/15 09:32:10;;;;;;;10.40;4.87;;;4.30;99.90;;;;;;6212247;23;20917;-51
2022/01/15 09:34:37;;;;;;;11.70;5.17;;;4.40;99.90;;;;;;6213423;23;20378;-49
2022/01/15 09:37:04;;;;;;;16.27;6.07;;;4.40;99.90;;;;;;6214121;23;20157;-48
2022/01/15 09:39:30;;;;;;;14.10;5.53;;;4.50;99.90;;;;;;6214244;23;20973;-48
2022/01/15 09:41:56;;;;;;;15.03;5.33;;;4.50;99.90;;;;;;6213967;23;20393;-48
2022/01/15 09:44:25;;;;;;;15.17;5.70;;;4.60;99.90;;;;;;6214421;23;20416;-48
2022/01/15 09:46:52;;;;;;;13.17;4.60;;;4.70;99.90;;;;;;6214131;23;20176;-48
2022/01/15 09:49:23;;;;;;;12.43;5.00;;;4.80;99.90;;;;;;6214070;23;20490;-49
2022/01/15 09:51:50;;;;;;;15.50;5.13;;;4.90;99.90;;;;;;6213809;23;20373;-48
2022/01/15 09:54:18;;;;;;;13.17;5.20;;;4.90;99.90;;;;;;6208905;23;20392;-50
2022/01/15 09:56:44;;;;;;;16.50;5.23;;;5.00;99.90;;;;;;6213697;23;20362;-48
2022/01/15 09:59:10;;;;;;;18.00;4.57;;;5.00;99.90;;;;;;6213518;23;20523;-49
2022/01/15 10:01:36;;;;;;;13.60;4.80;;;5.00;99.90;;;;;;6212841;23;20370;-48
2022/01/15 10:04:01;;;;;;;19.20;5.23;;;5.10;99.90;;;;;;6213052;23;20778;-49
2022/01/15 10:06:27;;;;;;;20.57;5.80;;;5.10;87.90;;;;;;6213756;23;20153;-48
2022/01/15 10:09:06;;;;;;;11.03;4.50;;;5.10;54.80;;;;;;6213549;23;20253;-48
2022/01/15 10:11:48;;;;;;;15.60;4.70;;;5.10;52.60;;;;;;6213793;23;20155;-49
2022/01/15 10:14:43;;;;;;;19.60;9.40;;;5.10;46.10;;;;;;6213908;23;20417;-49
2022/01/15 10:17:33;;;;;;;304.70;189.57;;;5.10;57.40;;;;;;6188343;23;20396;-48
2022/01/15 10:19:59;;;;;;;14.73;7.00;;;5.10;73.50;;;;;;6210621;23;20394;-48
2022/01/15 10:22:26;;;;;;;22.03;5.80;;;5.20;75.10;;;;;;6214478;23;20390;-48
2022/01/15 10:24:57;;;;;;;13.90;5.30;;;5.30;92.40;;;;;;6214570;23;20706;-49
2022/01/15 10:27:27;;;;;;;26.80;5.30;;;5.30;94.60;;;;;;6213897;23;20429;-48
2022/01/15 10:30:17;;;;;;;9.90;4.57;;;5.40;42.10;;;;;;6211660;23;20454;-48
2022/01/15 10:32:59;;;;;;;15.30;4.57;;;5.40;17.20;;;;;;6211653;23;20358;-48
2022/01/15 10:35:32;;;;;;;12.43;5.30;;;5.50;16.10;;;;;;6212688;23;20369;-48
2022/01/15 10:37:59;;;;;;;10.77;4.47;;;5.50;35.30;;;;;;6213253;23;20420;-48
2022/01/15 10:40:39;;;;;;;13.73;4.97;;;5.50;23.20;;;;;;6212447;23;21216;-48
2022/01/15 10:43:05;;;;;;;18.50;4.97;;;5.60;22.30;;;;;;6184941;23;20396;-48
2022/01/15 10:45:34;;;;;;;19.80;5.10;;;5.70;20.90;;;;;;6213008;23;20800;-48
2022/01/15 10:48:02;;;;;;;13.80;5.00;;;5.70;30.60;;;;;;6213705;23;20186;-48
2022/01/15 10:50:37;;;;;;;20.07;7.17;;;5.80;63.20;;;;;;6213587;23;20366;-48
2022/01/15 10:53:12;;;;;;;22.63;5.87;;;5.90;52.00;;;;;;6213608;23;20365;-48
2022/01/15 10:55:40;;;;;;;9.70;4.80;;;6.20;43.90;;;;;;6213697;23;20420;-48
2022/01/15 10:58:08;;;;;;;19.73;4.90;;;6.30;1.00;;;;;;6213663;23;20781;-48
2022/01/15 11:00:36;;;;;;;15.53;4.50;;;6.50;1.00;;;;;;6213535;23;20442;-49
2022/01/15 11:03:14;;;;;;;17.40;5.90;;;6.70;1.00;;;;;;6210394;23;20576;-48
2022/01/15 11:05:45;;;;;;;19.50;5.03;;;6.80;1.00;;;;;;6213989;23;20812;-48
2022/01/15 11:08:27;;;;;;;11.77;4.20;;;7.10;1.00;;;;;;6214103;23;20421;-49
2022/01/15 11:10:54;;;;;;;8.37;3.70;;;7.40;1.00;;;;;;6213563;23;20366;-48
2022/01/15 11:13:24;;;;;;;14.20;3.97;;;7.70;1.00;;;;;;6213207;23;20754;-49
2022/01/15 11:15:54;;;;;;;21.90;4.87;;;7.90;99.90;;;;;;6213286;23;20432;-48
2022/01/15 11:18:41;;;;;;;18.13;5.50;;;8.10;1.00;;;;;;6213403;23;20370;-49
2022/01/15 11:21:13;;;;;;;15.50;4.60;;;8.20;1.00;;;;;;6213008;23;20816;-49
2022/01/15 11:23:40;;;;;;;12.63;4.80;;;8.70;1.00;;;;;;6213516;23;20393;-48
2022/01/15 11:26:09;;;;;;;15.37;4.80;;;9.00;99.90;;;;;;6212815;23;20408;-48
2022/01/15 11:28:35;;;;;;;14.97;4.83;;;9.00;43.40;;;;;;6213273;23;20440;-48
2022/01/15 11:31:04;;;;;;;31.87;16.30;;;8.80;1.00;;;;;;6210081;23;20680;-49
2022/01/15 11:33:32;;;;;;;21.63;5.30;;;8.70;99.90;;;;;;6213337;23;20159;-48
2022/01/15 11:35:58;;;;;;;15.27;4.73;;;8.90;99.90;;;;;;6213772;23;20427;-49
2022/01/15 11:38:45;;;;;;;25.07;6.10;;;8.90;1.00;;;;;;6212961;23;20447;-49
2022/01/15 11:41:22;;;;;;;15.70;5.33;;;8.90;1.00;;;;;;6211769;23;20374;-49
2022/01/15 11:43:50;;;;;;;16.20;4.43;;;9.30;99.90;;;;;;6211945;23;20476;-48
2022/01/15 11:46:47;;;;;;;8.13;4.20;;;9.80;99.90;;;;;;6212579;23;20370;-49
2022/01/15 11:49:31;;;;;;;15.40;5.00;;;10.20;1.00;;;;;;6212915;23;20417;-49
2022/01/15 11:52:08;;;;;;;27.27;5.07;;;10.40;99.90;;;;;;6211411;23;20816;-49
2022/01/15 11:55:04;;;;;;;19.50;4.90;;;10.40;1.00;;;;;;6211484;23;20387;-48
2022/01/15 11:57:30;;;;;;;19.93;4.70;;;10.20;99.90;;;;;;6212770;23;20400;-48
2022/01/15 12:00:00;;;;;;;15.03;4.97;;;10.10;1.00;;;;;;6212299;23;20445;-49
2022/01/15 12:02:41;;;;;;;15.43;4.10;;;10.10;99.70;;;;;;6212149;23;20178;-48
2022/01/15 12:05:15;;;;;;;15.70;4.37;;;10.30;1.00;;;;;;6212190;23;20373;-51
2022/01/15 12:08:02;;;;;;;16.07;3.93;;;10.60;1.00;;;;;;6211270;23;20475;-49
2022/01/15 12:10:42;;;;;;;21.93;4.80;;;10.90;1.00;;;;;;6212149;23;20357;-48
2022/01/15 12:13:12;;;;;;;19.47;6.20;;;11.60;99.90;;;;;;6212494;23;20385;-48
2022/01/15 12:15:38;;;;;;;12.20;4.47;;;11.80;99.90;;;;;;6211288;23;20366;-48
2022/01/15 12:18:43;;;;;;;37.57;4.50;;;12.10;99.90;;;;;;6211549;23;20852;-49
2022/01/15 12:21:08;;;;;;;24.13;5.20;;;12.40;99.90;;;;;;6194904;23;20170;-56
2022/01/15 12:23:34;;;;;;;19.57;4.47;;;12.10;1.00;;;;;;6212401;23;20386;-49
2022/01/15 12:26:08;;;;;;;17.43;4.10;;;12.20;99.90;;;;;;6212441;23;20147;-49
2022/01/15 12:28:34;;;;;;;18.03;4.10;;;13.00;99.90;;;;;;6211201;23;20589;-49
2022/01/15 12:30:59;;;;;;;23.03;3.93;;;13.90;99.90;;;;;;6211391;23;20443;-50
2022/01/15 12:33:25;;;;;;;29.13;4.77;;;14.40;1.00;;;;;;6213022;23;20468;-49
2022/01/15 12:35:53;;;;;;;13.20;4.10;;;15.00;99.90;;;;;;6212239;23;20609;-49
2022/01/15 12:38:25;;;;;;;15.33;4.10;;;15.60;99.90;;;;;;6213463;23;20517;-49
2022/01/15 12:40:55;;;;;;;15.20;4.10;;;15.70;99.90;;;;;;6214324;23;20366;-49
2022/01/15 12:43:29;;;;;;;18.53;6.20;;;16.50;99.90;;;;;;6186931;23;20492;-49
2022/01/15 12:45:57;;;;;;;17.17;3.70;;;16.60;99.90;;;;;;6213507;23;20377;-49
2022/01/15 12:48:26;;;;;;;12.90;3.90;;;16.60;99.90;;;;;;6214836;23;20433;-49
2022/01/15 12:50:54;;;;;;;13.73;4.10;;;16.40;99.90;;;;;;6213821;23;20366;-49
2022/01/15 12:53:25;;;;;;;20.13;3.90;;;16.00;99.90;;;;;;6183124;23;20532;-49
2022/01/15 12:55:51;;;;;;;12.93;3.73;;;15.70;99.90;;;;;;6211787;23;20854;-49
2022/01/15 12:58:20;;;;;;;17.07;4.10;;;15.30;99.90;;;;;;6212648;23;20397;-49
2022/01/15 13:00:46;;;;;;;16.50;3.57;;;15.00;99.90;;;;;;6212278;23;20464;-49
2022/01/15 13:03:14;;;;;;;22.93;4.30;;;14.90;99.90;;;;;;6212926;23;20436;-54
2022/01/15 13:05:47;;;;;;;23.47;3.70;;;14.50;99.90;;;;;;6212865;23;20812;-49